createdAt,value
2022-08-23T00:01:21.122Z,18.45
2022-08-23T00:03:49.351Z,18.44
2022-08-23T00:06:17.156Z,18.42
2022-08-23T00:08:49.126Z,18.42
2022-08-23T00:11:41.612Z,18.40
2022-08-23T00:14:23.746Z,18.41
2022-08-23T00:16:51.581Z,18.45
2022-08-23T00:19:20.118Z,18.48
2022-08-23T00:21:47.802Z,18.52
2022-08-23T00:24:16.527Z,18.59
2022-08-23T00:27:00.540Z,18.54
2022-08-23T00:29:31.169Z,18.51
2022-08-23T00:31:58.883Z,18.49
2022-08-23T00:34:25.738Z,18.49
2022-08-23T00:36:52.942Z,18.48
2022-08-23T00:39:20.315Z,18.47
2022-08-23T00:41:48.921Z,18.50
2022-08-23T00:44:50.723Z,18.51
2022-08-23T00:47:37.467Z,18.54
2022-08-23T00:50:24.803Z,18.60
2022-08-23T00:53:07.465Z,18.64
2022-08-23T00:55:35.176Z,18.63
2022-08-23T00:58:02.380Z,18.64
2022-08-23T01:00:29.785Z,18.58
2022-08-23T01:02:57.778Z,18.55
2022-08-23T01:05:36.189Z,18.46
2022-08-23T01:08:03.075Z,18.52
2022-08-23T01:10:32.168Z,18.53
2022-08-23T01:13:08.479Z,18.52
2022-08-23T01:15:41.460Z,18.56
2022-08-23T01:18:13.339Z,18.57
2022-08-23T01:20:51.213Z,18.50
2022-08-23T01:23:22.214Z,18.52
2022-08-23T01:25:48.794Z,18.52
2022-08-23T01:28:15.555Z,18.54
2022-08-23T01:30:44.568Z,18.51
2022-08-23T01:33:11.111Z,18.46
2022-08-23T01:35:55.479Z,18.44
2022-08-23T01:38:23.460Z,18.41
2022-08-23T01:40:51.563Z,18.41
2022-08-23T01:43:21.422Z,18.45
2022-08-23T01:45:49.606Z,18.45
2022-08-23T01:48:17.693Z,18.46
2022-08-23T01:50:45.296Z,18.48
2022-08-23T01:53:12.460Z,18.41
2022-08-23T01:55:40.706Z,18.32
2022-08-23T01:58:08.083Z,18.33
2022-08-23T02:00:39.100Z,18.37
2022-08-23T02:03:07.335Z,18.36
2022-08-23T02:05:37.210Z,18.34
2022-08-23T02:08:24.073Z,18.33
2022-08-23T02:10:51.267Z,18.35
2022-08-23T02:13:18.130Z,18.36
2022-08-23T02:15:45.666Z,18.38
2022-08-23T02:18:13.482Z,18.37
2022-08-23T02:20:46.099Z,18.38
2022-08-23T02:23:12.881Z,18.38
2022-08-23T02:25:40.280Z,18.37
2022-08-23T02:28:08.203Z,18.29
2022-08-23T02:30:34.770Z,18.30
2022-08-23T02:33:02.021Z,18.27
2022-08-23T02:35:33.345Z,18.24
2022-08-23T02:38:07.391Z,18.22
2022-08-23T02:40:35.278Z,18.24
2022-08-23T02:43:02.870Z,18.23
2022-08-23T02:45:30.115Z,18.21
2022-08-23T02:47:57.274Z,18.23
2022-08-23T02:50:24.195Z,18.24
2022-08-23T02:52:50.867Z,18.27
2022-08-23T02:55:17.483Z,18.25
2022-08-23T02:57:44.139Z,18.19
2022-08-23T03:00:13.478Z,18.16
2022-08-23T03:02:40.504Z,18.17
2022-08-23T03:05:10.587Z,18.19
2022-08-23T03:07:37.442Z,18.18
2022-08-23T03:10:06.235Z,18.16
2022-08-23T03:12:33.501Z,18.16
2022-08-23T03:15:00.068Z,18.14
2022-08-23T03:17:26.686Z,18.11
2022-08-23T03:19:53.495Z,18.14
2022-08-23T03:22:20.088Z,18.12
2022-08-23T03:24:46.831Z,18.15
2022-08-23T03:27:13.385Z,18.13
2022-08-23T03:29:39.991Z,18.12
2022-08-23T03:32:07.472Z,18.12
2022-08-23T03:34:34.815Z,18.14
2022-08-23T03:37:01.603Z,18.15
2022-08-23T03:39:29.525Z,18.18
2022-08-23T03:41:56.087Z,18.16
2022-08-23T03:44:22.615Z,18.16
2022-08-23T03:46:50.998Z,18.18
2022-08-23T03:49:17.541Z,18.18
2022-08-23T03:51:44.108Z,18.14
2022-08-23T03:54:10.952Z,18.15
2022-08-23T03:56:40.504Z,18.14
2022-08-23T03:59:11.505Z,18.15
2022-08-23T04:01:38.104Z,18.17
2022-08-23T04:04:05.268Z,18.18
2022-08-23T04:06:33.137Z,18.18
2022-08-23T04:09:00.116Z,18.16
2022-08-23T04:11:27.612Z,18.16
2022-08-23T04:13:54.407Z,18.14
2022-08-23T04:16:21.043Z,18.14
2022-08-23T04:18:47.973Z,18.15
2022-08-23T04:21:20.705Z,18.12
2022-08-23T04:23:47.241Z,18.13
2022-08-23T04:26:13.805Z,18.11
2022-08-23T04:28:40.605Z,18.09
2022-08-23T04:31:07.366Z,18.09
2022-08-23T04:33:35.655Z,18.06
2022-08-23T04:36:07.164Z,18.08
2022-08-23T04:38:33.684Z,18.14
2022-08-23T04:41:19.030Z,18.15
2022-08-23T04:43:45.676Z,18.14
2022-08-23T04:46:15.434Z,18.17
2022-08-23T04:48:46.590Z,18.23
2022-08-23T04:51:13.811Z,18.27
2022-08-23T04:53:40.958Z,18.30
2022-08-23T04:56:08.855Z,18.36
2022-08-23T04:58:36.964Z,18.38
2022-08-23T05:01:07.932Z,18.38
2022-08-23T05:03:34.932Z,18.42
2022-08-23T05:06:01.875Z,18.46
2022-08-23T05:08:28.502Z,18.51
2022-08-23T05:10:55.480Z,18.55
2022-08-23T05:13:22.298Z,18.59
2022-08-23T05:15:52.607Z,18.61
2022-08-23T05:18:19.636Z,18.66
2022-08-23T05:20:46.515Z,18.68
2022-08-23T05:23:13.148Z,18.70
2022-08-23T05:25:53.246Z,18.69
2022-08-23T05:28:24.014Z,18.71
2022-08-23T05:31:10.424Z,18.76
2022-08-23T05:33:39.237Z,18.80
2022-08-23T05:36:06.629Z,18.84
2022-08-23T05:38:34.294Z,18.86
2022-08-23T05:41:05.301Z,18.84
2022-08-23T05:43:34.419Z,18.82
2022-08-23T05:46:02.355Z,18.83
2022-08-23T05:48:31.967Z,18.87
2022-08-23T05:51:08.575Z,18.86
2022-08-23T05:53:35.166Z,18.89
2022-08-23T05:56:17.962Z,18.94
2022-08-23T05:58:46.360Z,18.98
2022-08-23T06:01:14.521Z,19.05
2022-08-23T06:03:42.575Z,19.11
2022-08-23T06:06:10.441Z,19.13
2022-08-23T06:08:40.818Z,19.18
2022-08-23T06:11:11.005Z,19.21
2022-08-23T06:13:43.848Z,19.20
2022-08-23T06:16:15.118Z,19.23
2022-08-23T06:18:42.943Z,19.28
2022-08-23T06:21:11.689Z,19.34
2022-08-23T06:23:38.806Z,19.37
2022-08-23T06:26:14.438Z,19.37
2022-08-23T06:28:51.028Z,19.40
2022-08-23T06:31:39.815Z,19.43
2022-08-23T06:34:07.490Z,19.43
2022-08-23T06:36:34.540Z,19.45
2022-08-23T06:39:01.100Z,19.49
2022-08-23T06:41:28.716Z,19.51
2022-08-23T06:43:55.225Z,19.57
2022-08-23T06:46:25.138Z,19.66
2022-08-23T06:48:56.050Z,19.72
2022-08-23T06:51:29.173Z,19.72
2022-08-23T06:53:58.079Z,19.76
2022-08-23T06:56:29.635Z,19.82
2022-08-23T06:58:56.860Z,19.86
2022-08-23T07:01:44.541Z,19.92
2022-08-23T07:04:15.279Z,19.93
2022-08-23T07:06:42.423Z,19.94
2022-08-23T07:09:09.009Z,19.96
2022-08-23T07:11:36.169Z,20.06
2022-08-23T07:14:06.144Z,20.16
2022-08-23T07:16:35.185Z,20.20
2022-08-23T07:19:01.831Z,20.30
2022-08-23T07:21:28.511Z,20.33
2022-08-23T07:23:55.453Z,20.45
2022-08-23T07:26:26.212Z,20.57
2022-08-23T07:28:55.357Z,20.62
2022-08-23T07:31:27.199Z,20.66
2022-08-23T07:33:55.655Z,20.74
2022-08-23T07:36:28.004Z,20.87
2022-08-23T07:38:55.739Z,20.98
2022-08-23T07:41:31.086Z,21.02
2022-08-23T07:44:02.197Z,21.00
2022-08-23T07:46:30.940Z,21.04
2022-08-23T07:48:59.618Z,21.08
2022-08-23T07:51:27.562Z,21.12
2022-08-23T07:53:54.394Z,21.19
2022-08-23T07:56:22.018Z,21.32
2022-08-23T07:58:48.675Z,21.51
2022-08-23T08:01:19.133Z,21.59
2022-08-23T08:03:47.850Z,21.73
2022-08-23T08:06:21.590Z,21.82
2022-08-23T08:08:49.180Z,21.95
2022-08-23T08:11:18.942Z,22.15
2022-08-23T08:13:46.414Z,22.19
2022-08-23T08:16:29.867Z,22.16
2022-08-23T08:18:59.331Z,22.21
2022-08-23T08:21:27.875Z,22.42
2022-08-23T08:23:55.446Z,22.64
2022-08-23T08:26:22.998Z,22.78
2022-08-23T08:28:49.686Z,22.84
2022-08-23T08:31:16.687Z,22.85
2022-08-23T08:33:43.271Z,22.71
2022-08-23T08:36:29.121Z,22.66
2022-08-23T08:38:58.829Z,22.73
2022-08-23T08:42:05.399Z,22.75
2022-08-23T08:44:49.688Z,22.84
2022-08-23T08:47:31.442Z,22.97
2022-08-23T08:50:06.783Z,23.08
2022-08-23T08:52:40.932Z,23.09
2022-08-23T08:55:12.523Z,23.14
2022-08-23T08:57:43.339Z,23.16
2022-08-23T09:00:19.865Z,23.09
2022-08-23T09:02:47.036Z,23.05
2022-08-23T09:05:26.999Z,23.25
2022-08-23T09:08:11.727Z,23.37
2022-08-23T09:11:13.951Z,23.27
2022-08-23T09:14:10.278Z,23.39
2022-08-23T09:17:05.502Z,23.42
2022-08-23T09:19:37.362Z,23.51
2022-08-23T09:22:20.475Z,23.63
2022-08-23T09:24:47.040Z,23.78
2022-08-23T09:27:13.618Z,24.04
2022-08-23T09:29:52.965Z,24.12
2022-08-23T09:32:51.365Z,24.21
2022-08-23T09:35:24.257Z,24.33
2022-08-23T09:38:16.654Z,24.49
2022-08-23T09:40:49.748Z,24.68
2022-08-23T09:43:18.592Z,24.83
2022-08-23T09:45:50.936Z,24.89
2022-08-23T09:48:39.926Z,25.04
2022-08-23T09:51:22.456Z,25.09
2022-08-23T09:53:53.418Z,25.20
2022-08-23T09:56:26.490Z,25.24
2022-08-23T09:58:54.456Z,25.26
2022-08-23T10:01:38.959Z,25.19
2022-08-23T10:04:08.636Z,25.17
2022-08-23T10:06:36.399Z,25.32
2022-08-23T10:09:06.459Z,25.38
2022-08-23T10:11:45.290Z,25.50
2022-08-23T10:14:20.651Z,25.62
2022-08-23T10:17:14.078Z,25.84
2022-08-23T10:19:52.619Z,26.08
2022-08-23T10:22:23.742Z,26.21
2022-08-23T10:25:17.722Z,26.44
2022-08-23T10:28:05.623Z,26.70
2022-08-23T10:31:14.558Z,26.91
2022-08-23T10:33:50.373Z,27.17
2022-08-23T10:36:38.478Z,27.27
2022-08-23T10:39:18.785Z,26.84
2022-08-23T10:42:06.355Z,27.05
2022-08-23T10:45:09.727Z,27.15
2022-08-23T10:48:03.703Z,26.87
2022-08-23T10:50:44.748Z,26.90
2022-08-23T10:53:28.638Z,27.01
2022-08-23T10:56:03.143Z,27.33
2022-08-23T10:58:47.573Z,27.52
2022-08-23T11:01:21.214Z,27.78
2022-08-23T11:04:00.390Z,27.80
2022-08-23T11:06:39.801Z,27.88
2022-08-23T11:09:31.844Z,28.05
2022-08-23T11:12:20.225Z,28.39
2022-08-23T11:15:10.034Z,28.66
2022-08-23T11:17:52.190Z,29.01
2022-08-23T11:20:49.711Z,29.19
2022-08-23T11:23:38.649Z,29.37
2022-08-23T11:26:11.570Z,29.29
2022-08-23T11:28:42.338Z,29.30
2022-08-23T11:31:08.849Z,29.17
2022-08-23T11:33:51.968Z,29.04
2022-08-23T11:36:25.015Z,28.62
2022-08-23T11:38:51.546Z,28.38
2022-08-23T11:41:24.035Z,28.20
2022-08-23T11:44:10.989Z,28.15
2022-08-23T11:46:59.298Z,27.77
2022-08-23T11:49:28.643Z,27.76
2022-08-23T11:52:06.391Z,27.57
2022-08-23T11:54:35.880Z,27.31
2022-08-23T11:57:24.260Z,27.27
2022-08-23T12:00:06.458Z,27.28
2022-08-23T12:02:38.895Z,27.28
2022-08-23T12:05:34.440Z,27.27
2022-08-23T12:08:04.284Z,27.45
2022-08-23T12:10:43.052Z,27.60
2022-08-23T12:13:19.399Z,27.52
2022-08-23T12:16:16.529Z,27.21
2022-08-23T12:18:47.494Z,27.13
2022-08-23T12:21:47.501Z,27.03
2022-08-23T12:24:32.640Z,26.90
2022-08-23T12:26:59.225Z,26.85
2022-08-23T12:29:37.323Z,26.72
2022-08-23T12:32:12.472Z,26.68
2022-08-23T12:35:07.352Z,26.88
2022-08-23T12:37:47.439Z,27.09
2022-08-23T12:40:21.655Z,27.51
2022-08-23T12:42:48.471Z,27.95
2022-08-23T12:45:23.398Z,28.17
2022-08-23T12:48:02.654Z,28.60
2022-08-23T12:50:35.649Z,29.00
2022-08-23T12:53:06.815Z,28.93
2022-08-23T12:55:38.063Z,29.07
2022-08-23T12:58:06.626Z,29.43
2022-08-23T13:00:43.329Z,29.51
2022-08-23T13:03:18.148Z,29.53
2022-08-23T13:06:03.150Z,29.77
2022-08-23T13:08:38.660Z,29.98
2022-08-23T13:11:08.716Z,30.17
2022-08-23T13:13:38.713Z,30.24
2022-08-23T13:16:27.439Z,29.99
2022-08-23T13:18:56.280Z,30.00
2022-08-23T13:21:22.958Z,29.94
2022-08-23T13:23:51.460Z,29.90
2022-08-23T13:26:40.842Z,29.31
2022-08-23T13:29:24.050Z,28.53
2022-08-23T13:32:05.887Z,28.31
2022-08-23T13:34:48.647Z,28.68
2022-08-23T13:37:21.585Z,29.15
2022-08-23T13:40:12.410Z,29.95
2022-08-23T13:42:51.127Z,30.36
2022-08-23T13:45:26.363Z,31.00
2022-08-23T13:48:10.616Z,31.55
2022-08-23T13:50:38.750Z,32.30
2022-08-23T13:53:15.224Z,32.75
2022-08-23T13:55:55.579Z,32.49
2022-08-23T13:58:29.566Z,32.43
2022-08-23T14:00:59.005Z,32.84
2022-08-23T14:03:27.661Z,33.25
2022-08-23T14:05:54.459Z,33.90
2022-08-23T14:08:21.467Z,34.26
2022-08-23T14:10:48.120Z,34.27
2022-08-23T14:13:17.141Z,33.86
2022-08-23T14:18:32.741Z,32.92
2022-08-23T14:20:59.511Z,32.27
2022-08-23T14:23:26.126Z,32.52
2022-08-23T14:25:55.794Z,32.85
2022-08-23T14:28:26.144Z,32.60
2022-08-23T14:30:56.960Z,32.38
2022-08-23T14:33:23.967Z,31.88
2022-08-23T14:35:52.375Z,31.06
2022-08-23T14:38:19.149Z,30.54
2022-08-23T14:40:53.198Z,30.62
2022-08-23T14:43:21.505Z,30.45
2022-08-23T14:45:48.540Z,30.10
2022-08-23T14:48:16.164Z,29.58
2022-08-23T14:50:43.810Z,29.73
2022-08-23T14:53:11.718Z,30.20
2022-08-23T14:55:38.344Z,30.36
2022-08-23T14:58:04.866Z,29.54
2022-08-23T15:00:32.907Z,29.28
2022-08-23T15:02:59.603Z,29.81
2022-08-23T15:05:26.128Z,30.06
2022-08-23T15:07:52.691Z,30.35
2022-08-23T15:13:29.855Z,29.64
2022-08-23T15:15:53.407Z,29.61
2022-08-23T15:18:20.147Z,29.90
2022-08-23T15:20:47.063Z,29.51
2022-08-23T15:23:14.150Z,29.37
2022-08-23T15:25:42.237Z,30.28
2022-08-23T15:28:13.500Z,30.07
2022-08-23T15:30:41.368Z,29.84
2022-08-23T15:33:10.507Z,29.98
2022-08-23T15:35:41.711Z,30.16
2022-08-23T15:38:09.502Z,30.18
2022-08-23T15:40:36.568Z,30.16
2022-08-23T15:43:03.608Z,30.69
2022-08-23T15:45:32.365Z,30.85
2022-08-23T15:48:01.393Z,31.56
2022-08-23T15:50:33.217Z,31.99
2022-08-23T15:52:59.948Z,32.41
2022-08-23T15:55:30.939Z,32.22
2022-08-23T15:57:58.373Z,30.70
2022-08-23T16:00:26.442Z,29.96
2022-08-23T16:03:27.807Z,29.65
2022-08-23T16:05:43.436Z,29.05
2022-08-23T16:08:32.195Z,30.02
2022-08-23T16:10:59.298Z,30.45
2022-08-23T16:13:26.767Z,30.66
2022-08-23T16:15:53.826Z,30.30
2022-08-23T16:18:20.530Z,30.23
2022-08-23T16:20:47.095Z,30.20
2022-08-23T16:23:13.679Z,29.93
2022-08-23T16:25:40.859Z,29.99
2022-08-23T16:28:08.073Z,29.73
2022-08-23T16:30:35.222Z,29.58
2022-08-23T16:33:02.309Z,29.43
2022-08-23T16:35:29.025Z,29.00
2022-08-23T16:37:55.651Z,29.19
2022-08-23T16:40:22.798Z,28.56
2022-08-23T16:42:49.432Z,28.12
2022-08-23T16:45:16.082Z,27.81
2022-08-23T16:47:52.688Z,27.87
2022-08-23T16:50:19.232Z,27.94
2022-08-23T16:52:45.739Z,27.83
2022-08-23T16:55:12.779Z,27.75
2022-08-23T16:57:40.268Z,27.55
2022-08-23T17:00:10.848Z,27.27
2022-08-23T17:02:38.394Z,27.13
2022-08-23T17:05:08.354Z,26.70
2022-08-23T17:07:35.083Z,26.54
2022-08-23T17:10:01.937Z,26.46
2022-08-23T17:12:28.769Z,25.95
2022-08-23T17:14:57.331Z,25.79
2022-08-23T17:17:24.653Z,25.50
2022-08-23T17:19:51.286Z,25.31
2022-08-23T17:22:17.915Z,25.05
2022-08-23T17:24:44.427Z,25.11
2022-08-23T17:27:19.143Z,25.01
2022-08-23T17:29:45.937Z,24.70
2022-08-23T17:32:13.142Z,24.62
2022-08-23T17:34:39.666Z,24.53
2022-08-23T17:37:15.729Z,24.56
2022-08-23T17:39:42.351Z,24.40
2022-08-23T17:42:09.074Z,24.23
2022-08-23T17:44:36.159Z,24.07
2022-08-23T17:47:07.683Z,23.87
2022-08-23T17:49:34.632Z,23.71
2022-08-23T17:52:03.458Z,23.46
2022-08-23T17:54:29.990Z,23.23
2022-08-23T17:56:57.041Z,23.31
2022-08-23T17:59:23.690Z,23.28
2022-08-23T18:01:50.208Z,23.15
2022-08-23T18:04:17.192Z,23.09
2022-08-23T18:06:44.146Z,23.08
2022-08-23T18:09:11.386Z,22.90
2022-08-23T18:11:38.075Z,22.81
2022-08-23T18:14:05.582Z,22.69
2022-08-23T18:16:35.520Z,22.70
2022-08-23T18:19:04.281Z,22.49
2022-08-23T18:21:31.172Z,22.44
2022-08-23T18:23:58.913Z,22.34
2022-08-23T18:26:44.896Z,22.34
2022-08-23T18:29:14.383Z,22.27
2022-08-23T18:31:43.272Z,22.21
2022-08-23T18:34:11.070Z,22.19
2022-08-23T18:36:38.122Z,22.12
2022-08-23T18:39:05.911Z,22.08
2022-08-23T18:41:32.511Z,22.08
2022-08-23T18:43:59.751Z,21.94
2022-08-23T18:46:36.275Z,21.92
2022-08-23T18:49:05.054Z,21.94
2022-08-23T18:51:31.946Z,21.92
2022-08-23T18:53:58.965Z,21.89
2022-08-23T18:56:26.111Z,21.84
2022-08-23T18:58:53.456Z,21.85
2022-08-23T19:01:21.159Z,21.90
2022-08-23T19:03:47.966Z,21.78
2022-08-23T19:06:14.814Z,21.72
2022-08-23T19:08:41.363Z,21.78
2022-08-23T19:11:08.543Z,21.73
2022-08-23T19:13:35.279Z,21.67
2022-08-23T19:16:02.740Z,21.55
2022-08-23T19:18:29.880Z,21.44
2022-08-23T19:20:56.395Z,21.35
2022-08-23T19:23:22.979Z,21.30
2022-08-23T19:25:49.625Z,21.24
2022-08-23T19:28:19.582Z,21.33
2022-08-23T19:30:48.978Z,21.28
2022-08-23T19:33:16.460Z,21.24
2022-08-23T19:35:43.508Z,21.25
2022-08-23T19:38:10.647Z,21.25
2022-08-23T19:40:37.263Z,21.17
2022-08-23T19:43:05.307Z,21.12
2022-08-23T19:45:32.424Z,21.05
2022-08-23T19:48:00.190Z,20.98
2022-08-23T19:50:28.176Z,20.88
2022-08-23T19:52:54.731Z,20.86
2022-08-23T19:55:21.668Z,20.88
2022-08-23T19:57:48.299Z,20.86
2022-08-23T20:00:19.355Z,20.84
2022-08-23T20:02:46.460Z,20.78
2022-08-23T20:05:12.971Z,20.73
2022-08-23T20:07:39.554Z,20.68
2022-08-23T20:10:08.432Z,20.68
2022-08-23T20:12:35.468Z,20.69
2022-08-23T20:15:02.692Z,20.72
2022-08-23T20:17:29.238Z,20.66
2022-08-23T20:19:55.938Z,20.67
2022-08-23T20:22:40.970Z,20.64
2022-08-23T20:25:08.365Z,20.59
2022-08-23T20:27:37.080Z,20.58
2022-08-23T20:30:08.810Z,20.51
2022-08-23T20:32:36.485Z,20.48
2022-08-23T20:35:05.600Z,20.42
2022-08-23T20:37:32.134Z,20.37
2022-08-23T20:39:59.271Z,20.34
2022-08-23T20:42:26.217Z,20.36
2022-08-23T20:44:53.283Z,20.37
2022-08-23T20:47:20.203Z,20.32
2022-08-23T20:49:46.822Z,20.26
2022-08-23T20:52:13.521Z,20.25
2022-08-23T20:54:40.086Z,20.19
2022-08-23T20:57:06.586Z,20.15
2022-08-23T20:59:33.132Z,20.17
2022-08-23T21:01:59.764Z,20.15
2022-08-23T21:04:29.871Z,20.16
2022-08-23T21:06:57.455Z,20.27
2022-08-23T21:09:29.292Z,20.26
2022-08-23T21:11:56.635Z,20.29
2022-08-23T21:14:23.495Z,20.30
2022-08-23T21:16:50.051Z,20.35
2022-08-23T21:19:17.181Z,20.35
2022-08-23T21:21:44.007Z,20.34
2022-08-23T21:24:11.581Z,20.32
2022-08-23T21:26:39.375Z,20.34
2022-08-23T21:29:07.904Z,20.34
2022-08-23T21:31:35.004Z,20.29
2022-08-23T21:34:01.762Z,20.30
2022-08-23T21:36:28.384Z,20.24
2022-08-23T21:38:56.030Z,20.26
2022-08-23T21:41:38.625Z,20.22
2022-08-23T21:44:08.606Z,20.23
2022-08-23T21:46:35.840Z,20.11
2022-08-23T21:49:03.212Z,20.10
2022-08-23T21:51:29.849Z,20.12
2022-08-23T21:53:57.022Z,20.08
2022-08-23T21:56:24.721Z,19.99
2022-08-23T21:58:53.411Z,19.93
2022-08-23T22:01:20.031Z,19.91
2022-08-23T22:03:46.615Z,19.85
2022-08-23T22:06:15.142Z,19.84
2022-08-23T22:08:44.092Z,19.79
2022-08-23T22:11:11.384Z,19.70
2022-08-23T22:13:39.043Z,19.68
2022-08-23T22:16:07.065Z,19.69
2022-08-23T22:18:34.942Z,19.64
2022-08-23T22:21:02.415Z,19.61
2022-08-23T22:23:31.363Z,19.56
2022-08-23T22:26:01.035Z,19.53
2022-08-23T22:28:29.111Z,19.50
2022-08-23T22:31:05.744Z,19.48
2022-08-23T22:33:33.211Z,19.41
2022-08-23T22:36:11.750Z,19.33
2022-08-23T22:38:39.051Z,19.28
2022-08-23T22:41:06.976Z,19.23
2022-08-23T22:43:33.833Z,19.18
2022-08-23T22:46:02.563Z,19.11
2022-08-23T22:48:32.036Z,19.06
2022-08-23T22:51:23.535Z,19.03
2022-08-23T22:53:56.514Z,19.00
2022-08-23T22:56:29.381Z,18.92
2022-08-23T22:58:56.832Z,18.88
2022-08-23T23:01:30.999Z,18.84
2022-08-23T23:03:59.523Z,18.82
2022-08-23T23:06:28.008Z,18.84
2022-08-23T23:08:56.169Z,18.83
2022-08-23T23:11:23.715Z,18.87
2022-08-23T23:13:50.660Z,18.84
2022-08-23T23:16:20.857Z,18.77
2022-08-23T23:19:16.922Z,18.73
2022-08-23T23:21:46.810Z,18.74
2022-08-23T23:24:17.983Z,18.75
2022-08-23T23:26:47.891Z,18.70
2022-08-23T23:29:14.901Z,18.70
2022-08-23T23:31:41.671Z,18.70
2022-08-23T23:34:08.771Z,18.68
2022-08-23T23:36:35.803Z,18.70
2022-08-23T23:39:04.074Z,18.68
2022-08-23T23:41:31.218Z,18.72
2022-08-23T23:43:58.656Z,18.73
2022-08-23T23:46:25.337Z,18.77
2022-08-23T23:48:52.456Z,18.80
2022-08-23T23:51:23.387Z,18.82
2022-08-23T23:53:51.048Z,18.81
2022-08-23T23:56:18.867Z,18.84
2022-08-23T23:58:47.682Z,18.86
